Time;durP1;ratioP1;P1;durP2;ratioP2;P2;SDS_P1;SDS_P2;PMS_P1;PMS_P2;Temp;Humidity;BMP_temperature;BMP_pressure;BME280_temperature;BME280_humidity;BME280_pressure;Samples;Min_cycle;Max_cycle;Signal;HPM_P1;HPM_P2
2023/10/12 00:01:37;;;;;;;488.37;262.00;;;;;;;;;;4995394;28;20228;-65
2023/10/12 00:04:11;;;;;;;483.17;264.77;;;;;;;;;;4998423;28;20212;-64
2023/10/12 00:06:38;;;;;;;489.57;265.77;;;;;;;;;;4985995;28;20195;-64
2023/10/12 00:09:20;;;;;;;461.07;250.80;;;;;;;;;;4991244;28;20247;-65
2023/10/12 00:12:01;;;;;;;488.03;263.83;;;;;;;;;;4984374;28;20608;-65
2023/10/12 00:14:29;;;;;;;464.30;253.53;;;;;;;;;;4986915;28;20582;-65
2023/10/12 00:16:56;;;;;;;512.20;284.77;;;;;;;;;;4985155;28;20193;-65
2023/10/12 00:19:23;;;;;;;454.20;252.43;;;;;;;;;;4985448;28;20190;-65
2023/10/12 00:21:49;;;;;;;460.60;251.43;;;;;;;;;;4984294;28;20727;-65
2023/10/12 00:24:17;;;;;;;440.97;239.83;;;;;;;;;;4989155;28;20595;-65
2023/10/12 00:26:43;;;;;;;507.53;279.40;;;;;;;;;;4984692;28;20404;-65
2023/10/12 00:29:10;;;;;;;448.23;237.97;;;;;;;;;;4986374;28;20185;-64
2023/10/12 00:31:39;;;;;;;500.20;273.27;;;;;;;;;;4984312;28;20218;-65
2023/10/12 00:34:05;;;;;;;508.83;284.83;;;;;;;;;;4987391;28;20256;-65
2023/10/12 00:36:36;;;;;;;459.17;239.73;;;;;;;;;;4984604;28;20189;-64
2023/10/12 00:39:09;;;;;;;481.23;258.07;;;;;;;;;;4992692;28;20675;-65
2023/10/12 00:41:36;;;;;;;464.40;252.03;;;;;;;;;;4988967;28;20231;-65
2023/10/12 00:44:10;;;;;;;451.83;242.07;;;;;;;;;;4984505;28;20559;-65
2023/10/12 00:49:17;;;;;;;512.37;290.37;;;;;;;;;;4984473;28;20739;-65
2023/10/12 00:51:50;;;;;;;484.13;257.77;;;;;;;;;;4985276;28;20343;-65
2023/10/12 00:57:02;;;;;;;506.57;281.73;;;;;;;;;;4985704;28;20524;-65
2023/10/12 00:59:31;;;;;;;490.50;266.00;;;;;;;;;;4986603;28;21554;-65
2023/10/12 01:01:57;;;;;;;471.37;249.70;;;;;;;;;;4992577;28;20220;-63
2023/10/12 01:04:23;;;;;;;451.23;235.80;;;;;;;;;;4987598;28;20631;-64
2023/10/12 01:06:49;;;;;;;464.23;247.67;;;;;;;;;;4990504;28;20193;-63
2023/10/12 01:09:18;;;;;;;471.40;247.73;;;;;;;;;;4988773;28;20660;-65
2023/10/12 01:11:57;;;;;;;493.97;261.30;;;;;;;;;;4987642;28;20205;-64
2023/10/12 01:14:26;;;;;;;473.10;250.83;;;;;;;;;;4990962;28;20183;-67
2023/10/12 01:16:55;;;;;;;482.17;267.93;;;;;;;;;;4985072;28;20299;-68
2023/10/12 01:19:22;;;;;;;442.80;242.07;;;;;;;;;;4994399;28;20186;-67
2023/10/12 01:21:48;;;;;;;469.47;253.57;;;;;;;;;;4992275;28;20201;-68
2023/10/12 01:24:15;;;;;;;453.47;245.83;;;;;;;;;;4996788;28;20216;-67
2023/10/12 01:26:44;;;;;;;497.87;259.13;;;;;;;;;;4985852;28;20189;-68
2023/10/12 01:29:20;;;;;;;499.93;269.53;;;;;;;;;;4987902;28;20362;-68
2023/10/12 01:34:38;;;;;;;484.87;269.27;;;;;;;;;;4987786;28;20211;-67
2023/10/12 01:37:11;;;;;;;470.33;253.23;;;;;;;;;;4997128;28;20403;-68
2023/10/12 01:39:46;;;;;;;478.10;264.60;;;;;;;;;;4987405;28;20696;-68
2023/10/12 01:42:20;;;;;;;464.43;247.87;;;;;;;;;;4989493;28;20290;-69
2023/10/12 01:44:46;;;;;;;495.03;266.00;;;;;;;;;;4984804;28;20258;-67
2023/10/12 01:47:13;;;;;;;459.30;250.03;;;;;;;;;;4987196;28;20655;-68
2023/10/12 01:49:39;;;;;;;494.97;266.97;;;;;;;;;;4986123;28;20190;-68
2023/10/12 01:52:08;;;;;;;440.33;236.23;;;;;;;;;;4991906;28;20251;-67
2023/10/12 01:54:42;;;;;;;447.63;241.77;;;;;;;;;;4985898;28;20265;-68
2023/10/12 01:57:09;;;;;;;445.67;237.37;;;;;;;;;;4995257;28;20501;-68
2023/10/12 01:59:35;;;;;;;485.37;260.03;;;;;;;;;;4988548;28;20212;-67
2023/10/12 02:02:13;;;;;;;447.33;239.20;;;;;;;;;;4986400;28;20264;-69
2023/10/12 02:04:40;;;;;;;470.77;252.03;;;;;;;;;;4989010;28;20263;-67
2023/10/12 02:07:06;;;;;;;479.73;253.30;;;;;;;;;;4993240;28;20761;-67
2023/10/12 02:09:34;;;;;;;439.40;240.00;;;;;;;;;;4989545;28;20173;-67
2023/10/12 02:12:09;;;;;;;481.40;254.43;;;;;;;;;;4994797;28;20489;-67
2023/10/12 02:14:39;;;;;;;467.93;259.80;;;;;;;;;;4989263;28;20184;-67
2023/10/12 02:17:05;;;;;;;457.83;244.13;;;;;;;;;;4987592;28;20216;-67
2023/10/12 02:19:39;;;;;;;466.03;255.77;;;;;;;;;;4986748;28;20259;-67
2023/10/12 02:22:05;;;;;;;494.20;265.00;;;;;;;;;;4987578;28;20592;-67
2023/10/12 02:24:35;;;;;;;473.23;247.93;;;;;;;;;;4990519;28;20189;-67
2023/10/12 02:27:01;;;;;;;479.13;258.83;;;;;;;;;;4985570;28;20232;-68
2023/10/12 02:29:29;;;;;;;439.43;234.83;;;;;;;;;;4990631;28;20599;-67
2023/10/12 02:31:58;;;;;;;461.47;244.63;;;;;;;;;;4989106;28;20636;-67
2023/10/12 02:34:29;;;;;;;463.37;257.33;;;;;;;;;;4983841;28;20185;-67
2023/10/12 02:37:18;;;;;;;472.27;257.00;;;;;;;;;;4985399;28;20524;-67
2023/10/12 02:39:43;;;;;;;484.93;262.90;;;;;;;;;;4984226;28;20193;-67
2023/10/12 02:47:24;;;;;;;470.63;243.67;;;;;;;;;;4989198;28;20258;-67
2023/10/12 02:50:00;;;;;;;473.67;251.03;;;;;;;;;;4985687;28;20867;-67
2023/10/12 02:52:31;;;;;;;459.43;243.20;;;;;;;;;;4989045;28;20215;-67
2023/10/12 02:54:58;;;;;;;470.43;248.20;;;;;;;;;;4988722;28;20272;-67
2023/10/12 02:57:33;;;;;;;454.17;245.50;;;;;;;;;;4985229;28;20239;-67
2023/10/12 03:00:23;;;;;;;454.23;236.80;;;;;;;;;;4982147;28;20890;-67
2023/10/12 03:02:46;;;;;;;505.13;267.50;;;;;;;;;;4986147;28;20198;-67
2023/10/12 03:05:17;;;;;;;459.37;243.53;;;;;;;;;;4985386;28;20188;-67
2023/10/12 03:07:44;;;;;;;498.20;261.03;;;;;;;;;;4984721;28;20276;-67
2023/10/12 03:10:32;;;;;;;481.40;254.03;;;;;;;;;;4989090;28;20270;-67
2023/10/12 03:13:04;;;;;;;465.43;249.27;;;;;;;;;;4985793;28;20197;-67
2023/10/12 03:15:45;;;;;;;455.07;235.80;;;;;;;;;;4988572;28;20185;-67
2023/10/12 03:18:11;;;;;;;470.80;246.37;;;;;;;;;;4984764;28;20202;-67
2023/10/12 03:20:38;;;;;;;493.97;258.20;;;;;;;;;;4987033;28;20209;-67
2023/10/12 03:23:13;;;;;;;464.77;244.63;;;;;;;;;;4985185;28;20197;-67
2023/10/12 03:25:46;;;;;;;463.80;242.33;;;;;;;;;;4985869;28;20195;-67
2023/10/12 03:31:23;;;;;;;464.03;248.93;;;;;;;;;;4982636;28;20313;-67
2023/10/12 03:33:56;;;;;;;480.90;258.63;;;;;;;;;;4986139;28;20922;-68
2023/10/12 03:36:23;;;;;;;478.60;247.93;;;;;;;;;;4990053;28;20184;-67
2023/10/12 03:39:12;;;;;;;473.40;250.73;;;;;;;;;;4981309;28;20200;-68
2023/10/12 03:41:46;;;;;;;495.13;262.73;;;;;;;;;;4985253;28;20838;-67
2023/10/12 03:44:18;;;;;;;460.70;245.37;;;;;;;;;;4988908;28;20193;-68
2023/10/12 03:46:46;;;;;;;511.97;270.20;;;;;;;;;;4985565;28;20292;-68
2023/10/12 03:51:58;;;;;;;509.47;273.07;;;;;;;;;;4983479;28;20193;-68
2023/10/12 03:54:31;;;;;;;443.43;232.27;;;;;;;;;;4990403;28;20257;-67
2023/10/12 03:57:19;;;;;;;483.47;254.93;;;;;;;;;;4987727;28;20181;-65
2023/10/12 04:00:02;;;;;;;489.87;255.97;;;;;;;;;;4986684;28;20705;-65
2023/10/12 04:02:41;;;;;;;467.33;246.67;;;;;;;;;;4984284;28;20299;-64
2023/10/12 04:11:19;;;;;;;435.77;224.53;;;;;;;;;;4989708;28;20628;-65
2023/10/12 04:13:08;;;;;;;458.57;237.77;;;;;;;;;;4986874;28;20232;-65
2023/10/12 04:15:37;;;;;;;487.13;253.23;;;;;;;;;;4987209;28;20180;-64
2023/10/12 04:18:07;;;;;;;450.27;231.93;;;;;;;;;;5008224;23;20598;-47
2023/10/12 04:20:34;;;;;;;457.77;237.47;;;;;;;;;;4984317;28;20210;-47
2023/10/12 04:23:44;;;;;;;442.50;225.00;;;;;;;;;;4991683;28;20177;-47
2023/10/12 04:28:41;;;;;;;437.67;226.83;;;;;;;;;;4986837;28;20223;-47
2023/10/12 04:33:43;;;;;;;430.63;218.60;;;;;;;;;;4991830;28;20263;-47
2023/10/12 04:36:13;;;;;;;451.50;230.90;;;;;;;;;;4988041;28;20595;-47
2023/10/12 04:43:52;;;;;;;429.57;225.20;;;;;;;;;;4988255;28;20267;-47
2023/10/12 04:51:39;;;;;;;447.83;228.23;;;;;;;;;;4984475;28;20596;-47
2023/10/12 04:54:16;;;;;;;437.03;221.20;;;;;;;;;;4987313;28;20287;-47
2023/10/12 04:56:52;;;;;;;469.77;240.87;;;;;;;;;;4987739;28;20756;-47
2023/10/12 04:59:26;;;;;;;467.87;237.57;;;;;;;;;;4987609;28;20688;-47
2023/10/12 05:02:14;;;;;;;449.80;232.17;;;;;;;;;;4987930;28;20585;-47
2023/10/12 05:09:37;;;;;;;455.53;223.77;;;;;;;;;;4989537;28;20428;-47
2023/10/12 05:12:04;;;;;;;460.63;238.93;;;;;;;;;;4985609;28;20423;-48
2023/10/12 05:14:31;;;;;;;473.53;243.03;;;;;;;;;;4980302;28;20200;-47
2023/10/12 05:16:57;;;;;;;454.30;234.63;;;;;;;;;;4976898;28;20212;-48
2023/10/12 05:19:23;;;;;;;463.80;242.57;;;;;;;;;;4983189;28;20209;-47
2023/10/12 05:21:48;;;;;;;485.90;254.80;;;;;;;;;;4984183;28;20266;-49
2023/10/12 05:24:14;;;;;;;528.83;268.53;;;;;;;;;;4932724;28;23146;-49
2023/10/12 05:26:41;;;;;;;511.23;276.13;;;;;;;;;;4960539;28;20671;-49
2023/10/12 05:29:34;;;;;;;508.60;264.67;;;;;;;;;;4964397;28;20286;-49
2023/10/12 05:32:06;;;;;;;516.03;263.07;;;;;;;;;;4961720;28;20196;-49
2023/10/12 05:34:44;;;;;;;530.57;274.13;;;;;;;;;;4963539;28;20192;-49
2023/10/12 05:37:24;;;;;;;492.50;256.03;;;;;;;;;;4963038;28;20405;-49
2023/10/12 05:39:55;;;;;;;593.33;327.23;;;;;;;;;;4952667;28;20278;-49
2023/10/12 05:42:24;;;;;;;502.23;253.60;;;;;;;;;;4964164;28;20652;-50
2023/10/12 05:44:51;;;;;;;540.97;286.13;;;;;;;;;;4964354;28;20208;-49
2023/10/12 05:47:29;;;;;;;472.30;233.10;;;;;;;;;;4958094;28;20261;-50
2023/10/12 05:49:57;;;;;;;519.43;260.40;;;;;;;;;;4965923;28;20200;-50
2023/10/12 05:52:24;;;;;;;459.80;236.17;;;;;;;;;;4974425;28;20216;-50
2023/10/12 05:54:52;;;;;;;442.03;221.00;;;;;;;;;;4972128;28;20232;-49
2023/10/12 05:57:19;;;;;;;429.43;208.00;;;;;;;;;;4988606;28;20544;-49
2023/10/12 05:59:45;;;;;;;448.37;221.07;;;;;;;;;;4988936;28;20212;-49
2023/10/12 06:02:12;;;;;;;434.20;210.07;;;;;;;;;;4990621;28;20194;-49
2023/10/12 06:04:38;;;;;;;424.37;204.07;;;;;;;;;;4989020;28;20257;-49
2023/10/12 06:07:05;;;;;;;410.13;199.33;;;;;;;;;;4989236;28;20190;-49
2023/10/12 06:09:37;;;;;;;428.13;206.33;;;;;;;;;;5003077;28;20220;-48
2023/10/12 06:12:07;;;;;;;425.50;206.57;;;;;;;;;;5002111;28;20235;-49
2023/10/12 06:14:34;;;;;;;481.50;232.97;;;;;;;;;;4979363;28;20833;-49
2023/10/12 06:17:02;;;;;;;464.77;227.70;;;;;;;;;;4979372;28;20213;-49
2023/10/12 06:19:34;;;;;;;459.33;228.63;;;;;;;;;;4969790;28;20209;-49
2023/10/12 06:22:13;;;;;;;505.63;261.67;;;;;;;;;;4983527;28;20185;-49
2023/10/12 06:24:41;;;;;;;455.17;219.73;;;;;;;;;;4978151;28;20181;-49
2023/10/12 06:27:22;;;;;;;445.00;215.53;;;;;;;;;;4990023;28;20268;-48
2023/10/12 06:30:03;;;;;;;489.63;239.83;;;;;;;;;;4975841;28;20672;-48
2023/10/12 06:32:32;;;;;;;464.37;233.93;;;;;;;;;;4985286;28;20495;-49
2023/10/12 06:45:46;;;;;;;497.03;245.77;;;;;;;;;;4979198;28;20340;-47
2023/10/12 06:51:10;;;;;;;486.80;242.47;;;;;;;;;;4971691;28;20279;-49
2023/10/12 06:53:37;;;;;;;472.87;232.90;;;;;;;;;;4971323;28;20797;-48
2023/10/12 06:59:11;;;;;;;455.53;220.03;;;;;;;;;;4953382;28;20334;-48
2023/10/12 07:04:27;;;;;;;450.57;219.90;;;;;;;;;;4988289;28;20657;-48
2023/10/12 07:06:57;;;;;;;463.27;228.10;;;;;;;;;;4986751;28;20182;-49
2023/10/12 07:09:39;;;;;;;444.93;210.40;;;;;;;;;;4991185;28;20209;-49
2023/10/12 07:12:15;;;;;;;469.23;222.33;;;;;;;;;;4987002;28;20185;-48
2023/10/12 07:14:52;;;;;;;496.47;245.57;;;;;;;;;;4973878;28;20675;-49
2023/10/12 07:17:19;;;;;;;476.93;237.77;;;;;;;;;;4971583;28;20344;-48
2023/10/12 07:19:50;;;;;;;473.47;225.77;;;;;;;;;;4985020;28;20279;-49
2023/10/12 07:22:18;;;;;;;449.87;217.30;;;;;;;;;;4981145;28;20222;-48
2023/10/12 07:24:44;;;;;;;441.63;210.10;;;;;;;;;;4984776;28;20277;-49
2023/10/12 07:27:18;;;;;;;447.53;206.60;;;;;;;;;;4987129;28;20278;-48
2023/10/12 07:29:46;;;;;;;503.27;257.60;;;;;;;;;;4965548;28;20284;-49
2023/10/12 07:34:52;;;;;;;458.90;220.87;;;;;;;;;;4987587;28;20215;-49
2023/10/12 07:37:19;;;;;;;450.73;218.23;;;;;;;;;;4980904;28;20664;-48
2023/10/12 07:39:45;;;;;;;458.13;228.40;;;;;;;;;;4979669;28;20209;-48
2023/10/12 07:42:27;;;;;;;455.60;216.23;;;;;;;;;;4978854;28;20380;-49
2023/10/12 07:44:59;;;;;;;506.23;260.93;;;;;;;;;;4975178;28;20288;-48
2023/10/12 07:47:32;;;;;;;471.63;237.77;;;;;;;;;;4981743;28;20288;-48
2023/10/12 07:50:11;;;;;;;448.93;210.70;;;;;;;;;;4976548;28;20734;-48
2023/10/12 07:55:06;;;;;;;448.20;209.93;;;;;;;;;;4969696;28;20223;-48
2023/10/12 07:57:36;;;;;;;458.30;219.73;;;;;;;;;;4966924;28;20236;-48
2023/10/12 08:13:25;;;;;;;502.70;249.03;;;;;;;;;;4969336;28;20199;-48
2023/10/12 08:21:26;;;;;;;465.00;230.07;;;;;;;;;;4974238;28;20974;-48
2023/10/12 08:23:57;;;;;;;477.60;232.17;;;;;;;;;;4982541;28;20195;-48
2023/10/12 08:27:06;;;;;;;482.73;241.27;;;;;;;;;;4974115;28;20275;-48
2023/10/12 08:32:03;;;;;;;457.80;221.13;;;;;;;;;;4979904;28;20195;-49
2023/10/12 08:44:58;;;;;;;509.23;262.10;;;;;;;;;;4974031;28;20185;-48
2023/10/12 08:50:01;;;;;;;479.47;240.47;;;;;;;;;;4981083;28;20251;-48
2023/10/12 08:52:31;;;;;;;453.67;216.97;;;;;;;;;;4975258;28;20804;-48
2023/10/12 08:55:11;;;;;;;505.30;254.40;;;;;;;;;;4956140;28;20185;-48
2023/10/12 08:57:38;;;;;;;537.10;274.40;;;;;;;;;;4969761;28;21247;-48
2023/10/12 09:00:40;;;;;;;498.43;240.77;;;;;;;;;;4970268;28;20280;-47
2023/10/12 09:05:51;;;;;;;453.60;209.77;;;;;;;;;;4962865;28;20284;-48
2023/10/12 09:11:02;;;;;;;484.97;229.33;;;;;;;;;;4961097;28;20280;-49
2023/10/12 09:13:28;;;;;;;537.97;265.63;;;;;;;;;;4972063;28;20200;-49
2023/10/12 09:15:55;;;;;;;550.37;268.40;;;;;;;;;;4971077;28;20192;-48
2023/10/12 09:18:29;;;;;;;485.23;226.13;;;;;;;;;;4966208;28;20257;-48
2023/10/12 09:29:07;;;;;;;442.27;197.90;;;;;;;;;;4975844;28;20699;-47
2023/10/12 09:36:37;;;;;;;443.20;202.23;;;;;;;;;;4987704;28;20185;-47
2023/10/12 09:39:03;;;;;;;475.30;224.13;;;;;;;;;;4984809;28;20215;-48
2023/10/12 09:41:38;;;;;;;429.93;191.00;;;;;;;;;;4988597;28;20291;-48
2023/10/12 09:44:06;;;;;;;456.13;203.23;;;;;;;;;;4989333;28;20187;-48
2023/10/12 09:46:35;;;;;;;427.07;185.43;;;;;;;;;;4988372;28;20323;-47
2023/10/12 09:49:06;;;;;;;465.70;219.97;;;;;;;;;;4984654;28;20714;-48
2023/10/12 09:51:45;;;;;;;458.17;207.53;;;;;;;;;;4977436;28;20193;-48
2023/10/12 09:54:15;;;;;;;518.73;252.40;;;;;;;;;;4958467;28;20238;-48
2023/10/12 09:56:57;;;;;;;487.70;227.90;;;;;;;;;;4973377;28;20231;-48
2023/10/12 09:59:23;;;;;;;485.83;228.30;;;;;;;;;;4977395;28;20202;-49
2023/10/12 10:01:49;;;;;;;451.60;204.20;;;;;;;;;;4979227;28;20193;-49
2023/10/12 10:06:53;;;;;;;501.33;237.50;;;;;;;;;;4970695;28;20198;-48
2023/10/12 10:11:59;;;;;;;472.67;220.63;;;;;;;;;;4973879;28;20260;-48
2023/10/12 10:14:34;;;;;;;497.53;235.73;;;;;;;;;;4970066;28;20213;-48
2023/10/12 10:17:01;;;;;;;502.13;212.03;;;;;;;;;;4985222;23;20224;-53
2023/10/12 10:19:30;;;;;;;498.90;218.37;;;;;;;;;;4971359;28;20213;-53
2023/10/12 10:22:05;;;;;;;535.77;244.30;;;;;;;;;;4951578;28;20718;-53
2023/10/12 10:24:35;;;;;;;453.80;188.47;;;;;;;;;;4970597;28;20193;-53
2023/10/12 10:27:14;;;;;;;542.97;252.37;;;;;;;;;;4968415;28;20213;-53
2023/10/12 10:29:44;;;;;;;523.57;237.70;;;;;;;;;;4956888;28;20304;-53
2023/10/12 10:32:14;;;;;;;498.20;222.17;;;;;;;;;;4967310;28;20189;-53
2023/10/12 10:34:41;;;;;;;540.10;245.57;;;;;;;;;;4963096;28;20771;-53
2023/10/12 10:37:11;;;;;;;491.47;214.10;;;;;;;;;;4955710;28;20549;-53
2023/10/12 10:39:38;;;;;;;535.63;241.20;;;;;;;;;;4949604;28;21618;-53
2023/10/12 10:42:08;;;;;;;562.53;267.40;;;;;;;;;;4949140;28;20204;-53
2023/10/12 10:44:45;;;;;;;443.83;191.77;;;;;;;;;;4962293;28;20247;-53
2023/10/12 10:47:15;;;;;;;446.40;188.97;;;;;;;;;;4950515;28;20255;-53
2023/10/12 10:49:45;;;;;;;518.80;233.83;;;;;;;;;;4962579;28;20296;-53
2023/10/12 10:52:14;;;;;;;441.77;185.07;;;;;;;;;;4966410;28;20189;-53
2023/10/12 10:54:59;;;;;;;544.80;248.33;;;;;;;;;;4965002;28;20173;-53
2023/10/12 10:57:31;;;;;;;659.73;318.13;;;;;;;;;;4951052;28;20185;-53
2023/10/12 10:59:57;;;;;;;609.90;294.27;;;;;;;;;;4927521;28;20209;-53
2023/10/12 11:02:22;;;;;;;706.50;364.87;;;;;;;;;;4909788;28;20289;-53
2023/10/12 11:04:51;;;;;;;505.77;223.03;;;;;;;;;;4954659;28;20190;-53
2023/10/12 11:07:17;;;;;;;506.73;223.97;;;;;;;;;;4970413;28;20335;-53
2023/10/12 11:12:17;;;;;;;560.90;262.10;;;;;;;;;;4971490;28;20338;-53
2023/10/12 11:14:52;;;;;;;500.70;218.33;;;;;;;;;;4967287;28;20259;-53
2023/10/12 11:17:21;;;;;;;459.33;195.13;;;;;;;;;;4967363;28;20193;-53
2023/10/12 11:19:50;;;;;;;531.03;245.30;;;;;;;;;;4970021;28;20227;-52
2023/10/12 11:22:17;;;;;;;515.50;231.17;;;;;;;;;;4973310;28;20216;-53
2023/10/12 11:24:50;;;;;;;456.60;196.30;;;;;;;;;;4970995;28;20224;-53
2023/10/12 11:27:32;;;;;;;471.80;199.53;;;;;;;;;;4970054;28;20625;-53
2023/10/12 11:30:06;;;;;;;510.30;234.70;;;;;;;;;;4961077;28;20206;-53
2023/10/12 11:32:33;;;;;;;525.70;243.27;;;;;;;;;;4941508;28;20564;-53
2023/10/12 11:35:02;;;;;;;491.77;222.30;;;;;;;;;;4957211;28;20201;-53
2023/10/12 11:37:29;;;;;;;483.77;218.43;;;;;;;;;;4964371;28;25661;-53
2023/10/12 11:39:57;;;;;;;474.90;213.60;;;;;;;;;;4960575;28;20561;-53
2023/10/12 11:42:23;;;;;;;554.53;259.33;;;;;;;;;;4971229;28;20510;-53
2023/10/12 11:44:51;;;;;;;465.90;201.43;;;;;;;;;;4970351;28;20185;-53
2023/10/12 11:47:23;;;;;;;439.97;190.70;;;;;;;;;;4973475;28;20247;-53
2023/10/12 11:49:55;;;;;;;442.90;194.67;;;;;;;;;;4961372;28;20205;-52
2023/10/12 11:52:32;;;;;;;475.37;210.90;;;;;;;;;;4973377;28;20264;-53
2023/10/12 11:55:01;;;;;;;495.27;222.23;;;;;;;;;;4963037;28;20186;-53
2023/10/12 11:57:27;;;;;;;537.17;250.67;;;;;;;;;;4972211;28;20647;-53
2023/10/12 11:59:53;;;;;;;481.63;215.47;;;;;;;;;;4977326;28;20209;-53
2023/10/12 12:02:22;;;;;;;479.60;214.27;;;;;;;;;;4969618;28;20255;-53
2023/10/12 12:04:50;;;;;;;493.43;213.83;;;;;;;;;;4968580;28;20243;-52
2023/10/12 12:07:16;;;;;;;473.80;216.73;;;;;;;;;;4963451;28;20186;-53
2023/10/12 12:09:48;;;;;;;474.97;213.23;;;;;;;;;;4959752;28;20718;-53
2023/10/12 12:12:16;;;;;;;457.77;202.70;;;;;;;;;;4964307;28;20194;-53
2023/10/12 12:14:49;;;;;;;503.30;224.00;;;;;;;;;;4973777;28;20178;-53
2023/10/12 12:17:18;;;;;;;466.40;201.43;;;;;;;;;;4976588;28;20198;-53
2023/10/12 12:19:44;;;;;;;485.87;219.10;;;;;;;;;;4966260;28;20592;-53
2023/10/12 12:22:10;;;;;;;527.00;248.90;;;;;;;;;;4964807;28;20198;-53
2023/10/12 12:24:37;;;;;;;451.83;198.10;;;;;;;;;;4970811;28;20547;-53
2023/10/12 12:27:05;;;;;;;502.60;230.63;;;;;;;;;;4971517;28;20632;-53
2023/10/12 12:29:32;;;;;;;455.93;200.63;;;;;;;;;;4971019;28;20246;-53
2023/10/12 12:31:58;;;;;;;505.67;234.30;;;;;;;;;;4972544;28;20197;-52
2023/10/12 12:34:41;;;;;;;480.93;216.47;;;;;;;;;;4973656;28;20208;-53
2023/10/12 12:37:08;;;;;;;505.70;230.77;;;;;;;;;;4966760;28;20213;-53
2023/10/12 12:39:36;;;;;;;508.00;233.63;;;;;;;;;;4964485;28;20688;-53
2023/10/12 12:42:02;;;;;;;498.57;228.57;;;;;;;;;;4981016;28;20190;-53
2023/10/12 12:44:28;;;;;;;481.57;220.03;;;;;;;;;;4981827;28;20181;-53
2023/10/12 12:46:56;;;;;;;480.63;215.63;;;;;;;;;;4972501;28;20642;-53
2023/10/12 12:49:23;;;;;;;449.73;198.97;;;;;;;;;;4979398;28;20229;-53
2023/10/12 12:51:50;;;;;;;485.57;210.27;;;;;;;;;;4979325;28;20551;-52
2023/10/12 12:54:16;;;;;;;494.50;222.43;;;;;;;;;;4962931;28;26236;-53
2023/10/12 12:56:42;;;;;;;499.37;224.87;;;;;;;;;;4970826;28;20217;-53
2023/10/12 12:59:10;;;;;;;525.53;242.47;;;;;;;;;;4979268;28;20201;-53
2023/10/12 13:01:39;;;;;;;479.60;219.90;;;;;;;;;;4972422;28;20188;-53
2023/10/12 13:04:05;;;;;;;494.90;231.13;;;;;;;;;;4975045;28;20185;-53
2023/10/12 13:06:33;;;;;;;501.80;230.73;;;;;;;;;;4979562;28;20641;-53
2023/10/12 13:09:01;;;;;;;488.17;217.97;;;;;;;;;;4964791;28;21821;-53
2023/10/12 13:11:27;;;;;;;479.47;216.70;;;;;;;;;;4973259;28;20695;-53
2023/10/12 13:13:53;;;;;;;659.83;340.73;;;;;;;;;;4967371;28;20224;-53
2023/10/12 13:16:19;;;;;;;494.23;225.43;;;;;;;;;;4967196;28;20280;-53
2023/10/12 13:18:48;;;;;;;502.60;229.87;;;;;;;;;;4948944;28;20241;-53
2023/10/12 13:21:15;;;;;;;599.50;299.73;;;;;;;;;;4960188;28;20193;-52
2023/10/12 13:23:42;;;;;;;505.50;236.00;;;;;;;;;;4962556;28;20227;-52
2023/10/12 13:26:09;;;;;;;599.60;297.10;;;;;;;;;;4958964;28;21310;-52
2023/10/12 13:28:37;;;;;;;476.70;218.80;;;;;;;;;;4952738;28;20301;-51
2023/10/12 13:31:05;;;;;;;585.20;283.93;;;;;;;;;;4963868;28;20185;-51
2023/10/12 13:33:31;;;;;;;569.87;289.53;;;;;;;;;;4961154;28;20189;-52
2023/10/12 13:35:57;;;;;;;517.47;247.00;;;;;;;;;;4960622;28;20271;-52
2023/10/12 13:38:24;;;;;;;581.10;297.37;;;;;;;;;;4967401;28;20177;-52
2023/10/12 13:40:50;;;;;;;497.47;242.23;;;;;;;;;;4955447;28;20647;-51
2023/10/12 13:43:22;;;;;;;529.87;237.60;;;;;;;;;;4941087;28;20182;-52
2023/10/12 13:45:49;;;;;;;628.97;284.57;;;;;;;;;;4934951;28;20280;-52
2023/10/12 13:48:17;;;;;;;637.23;283.27;;;;;;;;;;4930132;28;21732;-51
2023/10/12 13:50:47;;;;;;;515.07;260.40;;;;;;;;;;4956983;28;21235;-52
2023/10/12 13:53:13;;;;;;;603.20;323.20;;;;;;;;;;4956505;28;22195;-51
2023/10/12 13:55:39;;;;;;;559.87;283.50;;;;;;;;;;4954525;28;20189;-52
2023/10/12 13:58:05;;;;;;;505.93;247.80;;;;;;;;;;4961275;28;20295;-52
2023/10/12 14:00:34;;;;;;;527.20;264.30;;;;;;;;;;4951433;28;20221;-51
2023/10/12 14:03:10;;;;;;;532.07;264.70;;;;;;;;;;4953535;28;20193;-54
2023/10/12 14:05:40;;;;;;;539.77;272.63;;;;;;;;;;4960430;28;20194;-51
2023/10/12 14:08:08;;;;;;;530.33;260.07;;;;;;;;;;4959969;28;20249;-51
2023/10/12 14:10:38;;;;;;;476.70;225.13;;;;;;;;;;4951874;28;20259;-52
2023/10/12 14:13:04;;;;;;;553.13;281.47;;;;;;;;;;4963499;28;21360;-51
2023/10/12 14:15:29;;;;;;;482.17;230.90;;;;;;;;;;4954659;28;20516;-52
2023/10/12 14:17:56;;;;;;;565.50;285.10;;;;;;;;;;4954590;28;20627;-51
2023/10/12 14:20:29;;;;;;;452.77;215.17;;;;;;;;;;4956613;28;20201;-52
2023/10/12 14:23:05;;;;;;;574.50;280.87;;;;;;;;;;4955192;28;20220;-52
2023/10/12 14:25:35;;;;;;;539.50;264.57;;;;;;;;;;4958382;28;20193;-52
2023/10/12 14:28:05;;;;;;;556.90;273.83;;;;;;;;;;4966879;28;20466;-52
2023/10/12 14:30:31;;;;;;;489.60;227.70;;;;;;;;;;4968919;28;20205;-52
2023/10/12 14:32:57;;;;;;;527.27;254.33;;;;;;;;;;4967899;28;21485;-52
2023/10/12 14:35:28;;;;;;;499.80;239.63;;;;;;;;;;4964265;28;20355;-52
2023/10/12 14:37:57;;;;;;;536.47;261.20;;;;;;;;;;4942629;28;20198;-52
2023/10/12 14:40:34;;;;;;;541.37;266.70;;;;;;;;;;4956595;28;29738;-52
2023/10/12 14:43:10;;;;;;;522.80;245.67;;;;;;;;;;4964308;28;20362;-52
2023/10/12 14:45:37;;;;;;;480.60;215.63;;;;;;;;;;4960781;28;20656;-52
2023/10/12 14:48:10;;;;;;;497.57;232.70;;;;;;;;;;4961806;28;20280;-52
2023/10/12 14:50:59;;;;;;;445.23;201.40;;;;;;;;;;4959630;28;20217;-52
2023/10/12 14:53:28;;;;;;;568.03;281.00;;;;;;;;;;4958691;28;32105;-52
2023/10/12 14:55:54;;;;;;;499.97;233.37;;;;;;;;;;4969568;28;20174;-52
2023/10/12 14:58:20;;;;;;;480.57;228.00;;;;;;;;;;4956500;28;21863;-52
2023/10/12 15:00:46;;;;;;;528.80;247.43;;;;;;;;;;4970511;28;20197;-52
2023/10/12 15:03:15;;;;;;;521.67;255.03;;;;;;;;;;4969997;28;20217;-53
2023/10/12 15:05:42;;;;;;;489.90;219.13;;;;;;;;;;4980307;28;20213;-52
2023/10/12 15:08:08;;;;;;;566.10;279.40;;;;;;;;;;4959095;28;23094;-53
2023/10/12 15:10:40;;;;;;;454.77;201.63;;;;;;;;;;4965338;28;20249;-53
2023/10/12 15:13:11;;;;;;;505.13;240.53;;;;;;;;;;4959379;28;28160;-53
2023/10/12 15:15:37;;;;;;;459.90;208.77;;;;;;;;;;4972830;28;20676;-53
2023/10/12 15:18:03;;;;;;;497.73;229.17;;;;;;;;;;4959474;28;20232;-53
2023/10/12 15:20:31;;;;;;;484.37;226.50;;;;;;;;;;4966425;28;20202;-53
2023/10/12 15:22:57;;;;;;;448.43;194.90;;;;;;;;;;4972759;28;20193;-53
2023/10/12 15:25:23;;;;;;;475.37;222.10;;;;;;;;;;4963007;28;35597;-53
2023/10/12 15:27:49;;;;;;;493.23;229.20;;;;;;;;;;4962569;28;20208;-53
2023/10/12 15:30:16;;;;;;;496.10;224.33;;;;;;;;;;4967924;28;20213;-53
2023/10/12 15:32:43;;;;;;;461.27;209.27;;;;;;;;;;4972189;28;20196;-53
2023/10/12 15:35:10;;;;;;;532.70;254.70;;;;;;;;;;4969807;28;20209;-53
2023/10/12 15:37:40;;;;;;;477.23;210.47;;;;;;;;;;4962906;28;20256;-53
2023/10/12 15:40:09;;;;;;;544.43;257.37;;;;;;;;;;4971326;28;28023;-53
2023/10/12 15:42:35;;;;;;;568.13;266.77;;;;;;;;;;4971070;28;20265;-53
2023/10/12 15:45:01;;;;;;;526.93;244.60;;;;;;;;;;4966555;28;20212;-53
2023/10/12 15:47:30;;;;;;;472.27;216.83;;;;;;;;;;4966493;28;20271;-54
2023/10/12 15:49:57;;;;;;;535.03;246.43;;;;;;;;;;4962217;28;20518;-54
2023/10/12 15:52:23;;;;;;;520.57;239.47;;;;;;;;;;4970064;28;21125;-54
2023/10/12 15:54:49;;;;;;;521.60;243.13;;;;;;;;;;4979114;28;27438;-54
2023/10/12 15:57:15;;;;;;;502.80;233.80;;;;;;;;;;4970801;28;20272;-52
2023/10/12 15:59:43;;;;;;;515.17;238.27;;;;;;;;;;4958894;28;20213;-51
2023/10/12 16:02:09;;;;;;;571.43;266.83;;;;;;;;;;4959204;28;20238;-51
2023/10/12 16:04:35;;;;;;;481.77;219.73;;;;;;;;;;4986446;28;20198;-51
2023/10/12 16:07:05;;;;;;;485.30;218.33;;;;;;;;;;4977214;28;20493;-51
2023/10/12 16:09:31;;;;;;;470.63;204.53;;;;;;;;;;4962373;28;20279;-52
2023/10/12 16:11:58;;;;;;;547.60;261.63;;;;;;;;;;4965775;28;20185;-51
2023/10/12 16:14:25;;;;;;;510.63;233.63;;;;;;;;;;4963323;28;20284;-52
2023/10/12 16:16:52;;;;;;;512.90;241.97;;;;;;;;;;4964180;28;20660;-52
2023/10/12 16:19:19;;;;;;;590.20;279.87;;;;;;;;;;4989755;22;20303;-51